Time;durP1;ratioP1;P1;durP2;ratioP2;P2;SDS_P1;SDS_P2;PMS_P1;PMS_P2;Temp;Humidity;BMP_temperature;BMP_pressure;BME280_temperature;BME280_humidity;BME280_pressure;Samples;Min_cycle;Max_cycle;Signal;HPM_P1;HPM_P2
2021/09/09 00:01:41;;;;;;;4.32;2.65;;;21.80;55.90;;;;;;2362669;52;20978;-71
2021/09/09 00:04:08;;;;;;;4.85;3.00;;;21.80;56.00;;;;;;2360900;53;20930;-72
2021/09/09 00:06:35;;;;;;;5.22;2.85;;;21.80;56.00;;;;;;2545115;52;21015;-76
2021/09/09 00:09:04;;;;;;;5.35;2.67;;;21.70;56.00;;;;;;2371725;52;20931;-73
2021/09/09 00:11:31;;;;;;;6.03;2.70;;;21.70;56.10;;;;;;2370675;53;20975;-69
2021/09/09 00:13:57;;;;;;;4.37;2.75;;;21.70;56.10;;;;;;2365362;53;20965;-71
2021/09/09 00:16:24;;;;;;;4.55;2.90;;;21.70;56.20;;;;;;2366932;53;20933;-71
2021/09/09 00:18:50;;;;;;;4.75;3.00;;;21.70;56.30;;;;;;2371360;52;20926;-76
2021/09/09 00:21:18;;;;;;;4.40;2.90;;;21.70;56.30;;;;;;2367665;53;20997;-71
2021/09/09 00:23:46;;;;;;;4.57;3.05;;;21.70;56.40;;;;;;2377013;52;20995;-72
2021/09/09 00:26:13;;;;;;;4.90;2.80;;;21.70;56.50;;;;;;2354735;53;20996;-72
2021/09/09 00:28:39;;;;;;;5.12;3.03;;;21.70;56.60;;;;;;2351518;53;21859;-69
2021/09/09 00:31:05;;;;;;;5.85;3.10;;;21.70;56.70;;;;;;2367192;53;21863;-70
2021/09/09 00:33:32;;;;;;;5.57;2.90;;;21.70;56.80;;;;;;2393907;52;21720;-71
2021/09/09 00:35:58;;;;;;;5.03;2.92;;;21.70;56.80;;;;;;2343391;53;20929;-72
2021/09/09 00:38:24;;;;;;;4.80;2.87;;;21.70;56.80;;;;;;2371315;52;21517;-73
2021/09/09 00:40:52;;;;;;;5.85;2.55;;;21.80;56.90;;;;;;2371264;52;22125;-72
2021/09/09 00:43:18;;;;;;;4.18;2.80;;;21.80;56.90;;;;;;2366323;53;20970;-70
2021/09/09 00:45:51;;;;;;;5.53;3.42;;;21.80;56.90;;;;;;2371519;52;20954;-72
2021/09/09 00:48:19;;;;;;;5.90;3.58;;;21.80;57.20;;;;;;2368806;53;20965;-72
2021/09/09 00:50:45;;;;;;;6.18;3.10;;;21.80;57.00;;;;;;2523655;52;21556;-72
2021/09/09 00:53:11;;;;;;;4.47;2.72;;;21.70;57.50;;;;;;2536389;52;20938;-72
2021/09/09 00:55:38;;;;;;;5.85;2.80;;;21.70;56.90;;;;;;2371562;53;21088;-71
2021/09/09 00:58:04;;;;;;;4.28;2.60;;;21.70;56.90;;;;;;2597393;52;20921;-70
2021/09/09 01:00:31;;;;;;;5.12;2.97;;;21.70;56.80;;;;;;2377297;52;21014;-71
2021/09/09 01:02:57;;;;;;;5.20;3.00;;;21.70;57.00;;;;;;2347036;52;20973;-73
2021/09/09 01:05:23;;;;;;;5.05;3.20;;;21.70;57.10;;;;;;2367322;53;21933;-69
2021/09/09 01:07:49;;;;;;;5.68;3.15;;;21.60;56.90;;;;;;2410579;52;21430;-73
2021/09/09 01:10:18;;;;;;;4.35;2.83;;;21.70;57.00;;;;;;2367480;52;21084;-70
2021/09/09 01:12:45;;;;;;;5.18;3.10;;;21.60;57.10;;;;;;2367627;53;20914;-72
2021/09/09 01:15:11;;;;;;;5.07;2.90;;;21.60;57.00;;;;;;2370915;52;20945;-74
2021/09/09 01:17:37;;;;;;;4.22;2.70;;;21.60;57.00;;;;;;2373276;53;20954;-73
2021/09/09 01:20:04;;;;;;;3.95;2.42;;;21.60;57.10;;;;;;2350439;53;20957;-73
2021/09/09 01:22:32;;;;;;;4.40;2.62;;;21.60;57.00;;;;;;2368231;52;21070;-72
2021/09/09 01:24:59;;;;;;;5.53;2.42;;;21.50;56.90;;;;;;2371704;52;20969;-75
2021/09/09 01:27:25;;;;;;;5.47;3.33;;;21.50;56.90;;;;;;2362123;53;21937;-73
2021/09/09 01:29:51;;;;;;;6.05;3.45;;;21.50;57.00;;;;;;2368355;53;21386;-71
2021/09/09 01:32:18;;;;;;;6.00;3.72;;;21.50;57.20;;;;;;2374545;53;20990;-69
2021/09/09 01:34:44;;;;;;;6.68;3.40;;;21.40;57.20;;;;;;2370221;53;20958;-71
2021/09/09 01:37:13;;;;;;;6.15;4.05;;;21.40;57.20;;;;;;2366683;53;21005;-70
2021/09/09 01:39:41;;;;;;;5.47;3.20;;;21.40;57.30;;;;;;2367594;53;21005;-72
2021/09/09 01:42:08;;;;;;;5.53;3.50;;;21.40;57.40;;;;;;2374788;53;21029;-70
2021/09/09 01:44:35;;;;;;;5.47;3.05;;;21.30;57.40;;;;;;2365913;53;20963;-72
2021/09/09 01:47:03;;;;;;;4.37;2.58;;;21.30;57.40;;;;;;2366515;53;21061;-70
2021/09/09 01:49:29;;;;;;;4.60;2.72;;;21.30;57.30;;;;;;2371412;53;20946;-71
2021/09/09 01:51:56;;;;;;;4.70;3.05;;;21.30;57.40;;;;;;2371219;53;21478;-72
2021/09/09 01:54:22;;;;;;;4.62;3.00;;;21.20;57.30;;;;;;2371484;52;21043;-71
2021/09/09 01:56:49;;;;;;;3.97;2.42;;;21.20;57.30;;;;;;2347632;53;21513;-71
2021/09/09 01:59:17;;;;;;;4.95;3.03;;;21.20;57.30;;;;;;2368213;53;21340;-69
2021/09/09 02:01:43;;;;;;;5.30;2.45;;;21.20;57.40;;;;;;2370318;53;20919;-75
2021/09/09 02:04:10;;;;;;;4.05;2.40;;;21.10;57.30;;;;;;2367489;53;21006;-71
2021/09/09 02:06:40;;;;;;;4.93;2.87;;;21.10;57.40;;;;;;2371021;53;20963;-70
2021/09/09 02:09:06;;;;;;;5.03;2.85;;;21.10;57.60;;;;;;2359586;53;20973;-70
2021/09/09 02:11:35;;;;;;;4.30;2.60;;;21.10;57.50;;;;;;2370598;53;21062;-73
2021/09/09 02:14:01;;;;;;;4.20;2.47;;;21.10;57.70;;;;;;2371859;52;21002;-72
2021/09/09 02:16:28;;;;;;;4.68;2.97;;;21.00;57.50;;;;;;2372217;52;20970;-71
2021/09/09 02:18:55;;;;;;;6.30;2.60;;;21.00;57.60;;;;;;2367565;53;20953;-72
2021/09/09 02:21:23;;;;;;;4.78;2.80;;;21.00;57.70;;;;;;2370365;52;20994;-76
2021/09/09 02:23:49;;;;;;;5.15;3.03;;;21.00;57.70;;;;;;2371159;52;20970;-72
2021/09/09 02:26:16;;;;;;;4.78;3.00;;;21.00;57.80;;;;;;2365596;53;21038;-71
2021/09/09 02:28:42;;;;;;;4.43;2.95;;;21.00;57.80;;;;;;2364500;53;20989;-72
2021/09/09 02:31:08;;;;;;;4.68;2.80;;;21.00;57.80;;;;;;2370754;52;20999;-69
2021/09/09 02:33:34;;;;;;;4.10;2.67;;;21.00;57.80;;;;;;2367338;53;20941;-70
2021/09/09 02:36:01;;;;;;;5.50;3.05;;;21.00;57.80;;;;;;2373378;52;20977;-70
2021/09/09 02:38:27;;;;;;;4.05;2.72;;;21.00;57.90;;;;;;2360976;53;20930;-73
2021/09/09 02:40:53;;;;;;;4.90;2.62;;;21.00;57.90;;;;;;2375572;52;21002;-73
2021/09/09 02:43:21;;;;;;;4.53;2.85;;;21.00;57.90;;;;;;2352958;52;21018;-73
2021/09/09 02:45:47;;;;;;;4.35;2.90;;;21.00;57.90;;;;;;2362887;53;21407;-69
2021/09/09 02:48:14;;;;;;;4.45;2.62;;;21.00;57.90;;;;;;2352512;53;21021;-76
2021/09/09 02:50:41;;;;;;;4.65;3.22;;;21.00;57.90;;;;;;2597956;52;20909;-71
2021/09/09 02:53:08;;;;;;;4.68;2.97;;;20.90;57.80;;;;;;2371208;52;20990;-70
2021/09/09 02:55:36;;;;;;;5.32;3.22;;;20.90;57.80;;;;;;2615616;52;20922;-72
2021/09/09 02:58:02;;;;;;;4.50;3.00;;;20.90;57.90;;;;;;2367253;53;20937;-72
2021/09/09 03:00:28;;;;;;;4.72;2.83;;;20.90;57.80;;;;;;2374737;53;20938;-70
2021/09/09 03:02:54;;;;;;;4.82;3.10;;;20.90;57.90;;;;;;2367327;53;20954;-71
2021/09/09 03:05:22;;;;;;;4.82;3.22;;;20.90;57.90;;;;;;2373655;52;21038;-70
2021/09/09 03:07:49;;;;;;;5.75;2.75;;;20.80;57.80;;;;;;2347383;53;20918;-69
2021/09/09 03:10:15;;;;;;;5.57;3.58;;;20.80;57.90;;;;;;2379378;52;20969;-72
2021/09/09 03:12:42;;;;;;;6.85;3.50;;;20.80;57.90;;;;;;2367071;53;20925;-75
2021/09/09 03:15:08;;;;;;;6.35;3.60;;;20.80;58.00;;;;;;2561218;52;20910;-72
2021/09/09 03:17:35;;;;;;;7.50;3.67;;;20.80;58.00;;;;;;2367902;53;21784;-70
2021/09/09 03:20:02;;;;;;;5.05;3.17;;;20.80;58.10;;;;;;2606724;52;21243;-71
2021/09/09 03:22:29;;;;;;;4.50;3.00;;;20.80;58.10;;;;;;2619555;52;21069;-69
2021/09/09 03:24:55;;;;;;;5.32;3.10;;;20.80;58.10;;;;;;2358381;53;20947;-72
2021/09/09 03:27:22;;;;;;;5.60;3.25;;;20.70;58.00;;;;;;2592016;52;21020;-69
2021/09/09 03:29:51;;;;;;;4.53;2.87;;;20.70;58.00;;;;;;2493276;52;20930;-70
2021/09/09 03:32:17;;;;;;;5.05;2.60;;;20.70;58.00;;;;;;2366721;53;21801;-70
2021/09/09 03:34:44;;;;;;;4.68;3.15;;;20.70;58.00;;;;;;2444462;52;20979;-70
2021/09/09 03:37:11;;;;;;;6.50;3.20;;;20.70;58.00;;;;;;2336323;53;20983;-71
2021/09/09 03:39:37;;;;;;;4.82;3.00;;;20.70;58.00;;;;;;2355248;52;21010;-73
2021/09/09 03:42:04;;;;;;;4.60;2.97;;;20.60;58.00;;;;;;2326930;53;20959;-72
2021/09/09 03:44:32;;;;;;;5.30;3.33;;;20.60;58.00;;;;;;2345277;53;20997;-74
2021/09/09 03:46:59;;;;;;;5.18;3.25;;;20.60;58.00;;;;;;2350446;53;21074;-72
2021/09/09 03:49:25;;;;;;;4.18;2.40;;;20.60;58.00;;;;;;2366057;52;21007;-70
2021/09/09 03:51:51;;;;;;;5.00;2.90;;;20.60;58.00;;;;;;2351825;52;21006;-69
2021/09/09 03:54:17;;;;;;;5.07;3.40;;;20.60;58.10;;;;;;2596807;52;22089;-70
2021/09/09 03:56:44;;;;;;;5.05;3.03;;;20.50;58.00;;;;;;2494337;52;21395;-71
2021/09/09 03:59:11;;;;;;;4.90;2.90;;;20.50;58.00;;;;;;2352484;52;21331;-72
2021/09/09 04:01:37;;;;;;;4.95;2.90;;;20.50;58.00;;;;;;2348565;53;20933;-70
2021/09/09 04:04:04;;;;;;;6.35;3.08;;;20.50;58.10;;;;;;2345400;53;20953;-69
2021/09/09 04:06:30;;;;;;;5.22;3.42;;;20.50;58.10;;;;;;2357211;52;21010;-71
2021/09/09 04:08:56;;;;;;;5.62;3.15;;;20.40;58.00;;;;;;2328458;53;20941;-71
2021/09/09 04:11:22;;;;;;;5.03;3.25;;;20.40;58.70;;;;;;2353184;52;20990;-71
2021/09/09 04:13:49;;;;;;;4.93;3.15;;;20.40;58.20;;;;;;2491481;52;21576;-71
2021/09/09 04:16:15;;;;;;;4.57;3.15;;;20.40;58.20;;;;;;2341863;53;20938;-72
2021/09/09 04:18:41;;;;;;;5.65;3.55;;;20.30;58.10;;;;;;2452216;52;21578;-73
2021/09/09 04:21:07;;;;;;;5.10;3.30;;;20.30;58.20;;;;;;2347512;52;20926;-71
2021/09/09 04:23:34;;;;;;;5.30;3.15;;;20.30;58.20;;;;;;2347517;53;20957;-71
2021/09/09 04:26:00;;;;;;;5.85;3.28;;;20.30;58.30;;;;;;2352665;52;21115;-70
2021/09/09 04:28:26;;;;;;;6.00;3.17;;;20.30;58.30;;;;;;2338937;53;21028;-72
2021/09/09 04:30:52;;;;;;;5.43;3.70;;;20.30;58.30;;;;;;2350537;53;20975;-73
2021/09/09 04:33:19;;;;;;;5.00;3.42;;;20.20;58.40;;;;;;2347502;53;21440;-71
2021/09/09 04:35:45;;;;;;;6.30;3.75;;;20.20;58.40;;;;;;2352801;52;21103;-72
2021/09/09 04:38:12;;;;;;;5.30;3.37;;;20.20;58.40;;;;;;2328968;53;20953;-69
2021/09/09 04:40:38;;;;;;;5.15;3.05;;;20.20;58.50;;;;;;2351856;52;21133;-71
2021/09/09 04:43:04;;;;;;;5.25;3.30;;;20.20;58.50;;;;;;2350182;53;21999;-70
2021/09/09 04:45:30;;;;;;;5.03;3.10;;;20.20;58.50;;;;;;2333137;53;20976;-70
2021/09/09 04:47:57;;;;;;;5.55;3.15;;;20.20;58.50;;;;;;2342913;53;21158;-72
2021/09/09 04:50:23;;;;;;;4.90;3.17;;;20.20;58.60;;;;;;2343263;53;21366;-70
2021/09/09 04:52:50;;;;;;;4.82;2.80;;;20.20;58.60;;;;;;2351994;53;20966;-73
2021/09/09 04:55:17;;;;;;;5.25;3.05;;;20.10;58.60;;;;;;2347344;53;21054;-73
2021/09/09 04:57:43;;;;;;;5.57;2.90;;;20.10;58.70;;;;;;2402878;52;22345;-71
2021/09/09 05:00:10;;;;;;;4.70;3.08;;;20.10;58.80;;;;;;2351778;52;21062;-74
2021/09/09 05:02:36;;;;;;;5.50;3.25;;;20.10;58.80;;;;;;2349584;52;21788;-69
2021/09/09 05:05:03;;;;;;;5.43;3.03;;;20.10;58.80;;;;;;2347769;53;21379;-70
2021/09/09 05:07:29;;;;;;;9.20;3.17;;;20.10;58.90;;;;;;2358089;52;20914;-71
2021/09/09 05:09:55;;;;;;;5.45;3.35;;;20.10;58.90;;;;;;2347306;53;21412;-69
2021/09/09 05:12:21;;;;;;;5.95;3.30;;;20.10;59.00;;;;;;2445961;52;20978;-72
2021/09/09 05:14:48;;;;;;;4.40;2.67;;;20.10;59.00;;;;;;2347598;53;20977;-73
2021/09/09 05:17:14;;;;;;;4.45;2.58;;;20.10;59.70;;;;;;2351761;52;20959;-71
2021/09/09 05:19:40;;;;;;;4.22;2.53;;;20.10;59.20;;;;;;2347257;53;21001;-71
2021/09/09 05:22:06;;;;;;;4.80;3.08;;;20.10;59.20;;;;;;2387948;52;21033;-70
2021/09/09 05:24:32;;;;;;;4.00;2.80;;;20.20;59.30;;;;;;2339224;53;20986;-72
2021/09/09 05:26:59;;;;;;;5.95;3.20;;;20.20;59.40;;;;;;2339555;53;20944;-70
2021/09/09 05:29:25;;;;;;;4.87;2.95;;;20.20;59.40;;;;;;2342340;53;20969;-70
2021/09/09 05:31:52;;;;;;;5.72;3.47;;;20.30;59.50;;;;;;2328241;53;20973;-72
2021/09/09 05:34:18;;;;;;;5.03;3.03;;;20.20;59.50;;;;;;2410806;52;21582;-70
2021/09/09 05:36:44;;;;;;;5.62;3.72;;;20.30;59.60;;;;;;2555121;52;20958;-72
2021/09/09 05:39:11;;;;;;;5.10;3.20;;;20.40;59.70;;;;;;2328031;53;21366;-75
2021/09/09 05:41:37;;;;;;;5.85;3.55;;;20.40;59.70;;;;;;2352765;52;21139;-72
2021/09/09 05:44:04;;;;;;;5.03;3.33;;;20.40;59.70;;;;;;2349791;53;20997;-73
2021/09/09 05:46:30;;;;;;;5.12;3.30;;;20.40;59.70;;;;;;2337098;53;21013;-72
2021/09/09 05:48:56;;;;;;;6.07;3.47;;;20.50;59.80;;;;;;2347791;52;21056;-71
2021/09/09 05:51:22;;;;;;;4.90;3.37;;;20.50;60.00;;;;;;2356219;52;21042;-71
2021/09/09 05:53:49;;;;;;;4.32;3.17;;;20.60;60.10;;;;;;2339986;53;20971;-71
2021/09/09 05:56:16;;;;;;;5.35;3.78;;;20.60;60.10;;;;;;2347258;53;20997;-69
2021/09/09 05:58:42;;;;;;;6.45;3.62;;;20.60;60.30;;;;;;2350975;53;20967;-75
2021/09/09 06:01:08;;;;;;;5.70;3.47;;;20.60;60.50;;;;;;2356028;52;21037;-70
2021/09/09 06:03:35;;;;;;;5.30;2.92;;;20.80;60.80;;;;;;2344957;53;20969;-70
2021/09/09 06:06:04;;;;;;;5.00;3.17;;;20.80;60.90;;;;;;2336592;53;21014;-73
2021/09/09 06:08:31;;;;;;;4.72;3.15;;;20.90;61.00;;;;;;2524890;52;21026;-73
2021/09/09 06:10:58;;;;;;;4.15;2.65;;;20.90;61.10;;;;;;2347368;53;21060;-70
2021/09/09 06:13:24;;;;;;;4.70;3.00;;;21.00;61.10;;;;;;2352141;53;21623;-70
2021/09/09 06:15:50;;;;;;;5.97;3.15;;;21.10;61.10;;;;;;2340029;53;22098;-70
2021/09/09 06:18:16;;;;;;;4.60;2.78;;;21.20;60.90;;;;;;2352981;52;20990;-70
2021/09/09 06:20:43;;;;;;;6.03;3.12;;;21.30;60.90;;;;;;2347342;53;21361;-70
2021/09/09 06:23:09;;;;;;;4.30;2.75;;;21.40;61.00;;;;;;2441595;52;21105;-72
2021/09/09 06:25:36;;;;;;;3.92;2.53;;;21.50;61.00;;;;;;2493810;52;21064;-73
2021/09/09 06:28:02;;;;;;;7.15;2.80;;;21.60;60.90;;;;;;2597799;52;21596;-72
2021/09/09 06:30:28;;;;;;;4.37;2.67;;;21.70;60.60;;;;;;2344912;53;21570;-71
2021/09/09 06:32:54;;;;;;;4.43;2.87;;;21.80;60.50;;;;;;2347665;53;21045;-74
2021/09/09 06:35:21;;;;;;;4.90;3.08;;;22.00;60.60;;;;;;2353748;52;21458;-75
2021/09/09 06:37:48;;;;;;;5.18;3.40;;;22.10;60.70;;;;;;2349861;53;21531;-72
2021/09/09 06:40:14;;;;;;;5.95;2.87;;;22.20;60.40;;;;;;2329765;53;21034;-72
2021/09/09 06:42:40;;;;;;;4.50;2.53;;;22.30;60.20;;;;;;2439837;52;21004;-72
2021/09/09 06:45:07;;;;;;;4.07;2.78;;;22.30;60.00;;;;;;2384257;53;20963;-72
2021/09/09 06:47:34;;;;;;;4.57;2.97;;;22.50;60.00;;;;;;2351215;53;20919;-73
2021/09/09 06:50:00;;;;;;;6.37;3.17;;;22.60;60.00;;;;;;2338160;53;20977;-73
2021/09/09 06:52:26;;;;;;;5.03;2.95;;;22.70;59.80;;;;;;2345771;53;20985;-73
2021/09/09 06:54:52;;;;;;;6.43;4.32;;;22.70;59.60;;;;;;2351417;52;20982;-74
2021/09/09 06:57:19;;;;;;;12.70;4.85;;;22.80;59.50;;;;;;2347978;53;20950;-71
2021/09/09 06:59:47;;;;;;;7.47;4.45;;;22.90;59.40;;;;;;2351996;52;20945;-74
2021/09/09 07:02:14;;;;;;;6.65;3.85;;;22.90;59.50;;;;;;2480585;52;20982;-70
2021/09/09 07:04:40;;;;;;;6.10;4.20;;;23.00;59.20;;;;;;2506107;52;20937;-70
2021/09/09 07:07:06;;;;;;;6.10;3.78;;;22.90;59.00;;;;;;2347817;52;20965;-72
2021/09/09 07:09:33;;;;;;;5.82;3.87;;;23.00;59.00;;;;;;2355833;53;21034;-72
2021/09/09 07:11:59;;;;;;;8.63;4.15;;;23.00;59.10;;;;;;2338265;53;20992;-70
2021/09/09 07:14:25;;;;;;;7.75;4.37;;;23.00;59.10;;;;;;2457603;52;21311;-72
2021/09/09 07:16:52;;;;;;;6.95;4.12;;;22.90;59.00;;;;;;2348092;53;20934;-72
2021/09/09 07:19:19;;;;;;;5.05;3.67;;;22.90;59.00;;;;;;2348113;53;20997;-73
2021/09/09 07:21:49;;;;;;;6.50;4.22;;;22.90;58.90;;;;;;2347656;52;20997;-70
2021/09/09 07:24:17;;;;;;;6.05;3.65;;;22.90;58.90;;;;;;2329265;53;21089;-73
2021/09/09 07:26:44;;;;;;;7.00;3.70;;;22.90;59.10;;;;;;2347918;53;20958;-70
2021/09/09 07:29:13;;;;;;;5.28;3.58;;;23.00;59.20;;;;;;2352179;53;21022;-72
2021/09/09 07:31:42;;;;;;;6.68;3.83;;;23.00;59.30;;;;;;2353550;53;21002;-71
2021/09/09 07:34:09;;;;;;;5.68;3.72;;;23.00;59.50;;;;;;2330663;53;20959;-73
2021/09/09 07:36:36;;;;;;;6.95;3.72;;;23.00;59.40;;;;;;2428185;52;20946;-73
2021/09/09 07:39:03;;;;;;;5.53;3.75;;;23.10;59.50;;;;;;2376481;52;21443;-71
2021/09/09 07:41:29;;;;;;;5.35;3.40;;;23.10;59.30;;;;;;2349325;53;20937;-74
2021/09/09 07:43:56;;;;;;;5.53;3.62;;;23.20;59.20;;;;;;2347263;53;20993;-71
2021/09/09 07:46:22;;;;;;;6.62;4.05;;;23.20;59.20;;;;;;2348576;52;21295;-74
2021/09/09 07:48:50;;;;;;;5.28;3.30;;;23.30;59.10;;;;;;2347947;53;20981;-72
2021/09/09 07:51:18;;;;;;;5.55;3.50;;;23.30;59.00;;;;;;2348471;52;20918;-71
2021/09/09 07:53:45;;;;;;;5.55;3.60;;;23.40;58.90;;;;;;2360414;52;21549;-71
2021/09/09 07:56:12;;;;;;;4.68;3.17;;;23.40;58.70;;;;;;2342797;53;21511;-73
2021/09/09 07:58:38;;;;;;;5.93;2.97;;;23.50;58.60;;;;;;2339613;53;20938;-71
2021/09/09 08:01:04;;;;;;;7.70;3.47;;;23.50;58.50;;;;;;2380438;52;20990;-72
2021/09/09 08:03:30;;;;;;;6.25;3.12;;;23.50;58.40;;;;;;2353154;52;20995;-73
2021/09/09 08:05:57;;;;;;;4.57;2.70;;;23.60;58.30;;;;;;2351630;52;20970;-71
2021/09/09 08:08:23;;;;;;;4.93;3.20;;;23.60;58.20;;;;;;2448596;52;20933;-70
2021/09/09 08:10:52;;;;;;;5.55;2.65;;;23.70;58.20;;;;;;2362773;52;21540;-72
2021/09/09 08:13:18;;;;;;;5.18;3.40;;;23.80;58.20;;;;;;2323612;53;21501;-70
2021/09/09 08:15:45;;;;;;;4.47;2.85;;;23.80;58.10;;;;;;2564313;52;20998;-72
2021/09/09 08:18:11;;;;;;;7.47;3.35;;;23.80;58.10;;;;;;2333575;53;20988;-70
2021/09/09 08:20:37;;;;;;;5.07;3.40;;;23.80;58.20;;;;;;2364300;52;21034;-71
2021/09/09 08:23:03;;;;;;;6.93;3.45;;;23.90;58.30;;;;;;2531681;52;21362;-73
2021/09/09 08:25:30;;;;;;;7.45;3.45;;;23.90;58.30;;;;;;2500385;52;21006;-72
2021/09/09 08:27:56;;;;;;;5.53;3.15;;;23.90;58.20;;;;;;2327656;53;21074;-73
2021/09/09 08:30:22;;;;;;;4.43;2.60;;;24.00;58.30;;;;;;2329805;53;21566;-72
2021/09/09 08:32:49;;;;;;;4.40;3.08;;;24.00;58.10;;;;;;2432722;52;21053;-74
2021/09/09 08:35:15;;;;;;;5.78;3.58;;;24.00;58.10;;;;;;2352186;52;21023;-72
2021/09/09 08:37:41;;;;;;;6.47;3.97;;;24.00;58.10;;;;;;2356569;52;21022;-74
2021/09/09 08:40:09;;;;;;;5.82;3.47;;;24.00;58.00;;;;;;2349639;53;20994;-72
2021/09/09 08:42:40;;;;;;;6.37;3.83;;;24.10;58.10;;;;;;2352638;52;21093;-76
2021/09/09 08:45:07;;;;;;;5.05;2.90;;;24.10;58.30;;;;;;2328629;53;20965;-74
2021/09/09 08:47:34;;;;;;;5.07;3.10;;;24.10;58.30;;;;;;2328791;53;20953;-71
2021/09/09 08:50:00;;;;;;;4.70;2.72;;;24.20;58.30;;;;;;2357894;52;20954;-72
2021/09/09 08:52:26;;;;;;;4.78;3.00;;;24.30;58.40;;;;;;2340405;52;22087;-74
2021/09/09 08:54:55;;;;;;;4.62;2.40;;;24.30;58.40;;;;;;2342124;53;20949;-73
2021/09/09 08:57:23;;;;;;;4.50;2.90;;;24.30;58.60;;;;;;2361841;52;20925;-73
2021/09/09 08:59:49;;;;;;;4.60;2.83;;;24.40;58.60;;;;;;2356117;52;21901;-74
2021/09/09 09:02:21;;;;;;;4.57;2.95;;;24.40;59.00;;;;;;2354653;52;21702;-73
2021/09/09 09:05:00;;;;;;;4.78;2.85;;;24.50;58.40;;;;;;2347737;53;21092;-74
2021/09/09 09:07:32;;;;;;;5.32;3.05;;;24.60;58.30;;;;;;2347255;52;20941;-73
2021/09/09 09:09:59;;;;;;;4.82;2.87;;;24.60;58.30;;;;;;2410741;52;21561;-74
2021/09/09 09:12:36;;;;;;;4.28;2.67;;;24.70;58.30;;;;;;2348012;53;21918;-72
2021/09/09 09:15:13;;;;;;;6.68;3.10;;;24.80;58.40;;;;;;2347889;53;20949;-71
2021/09/09 09:18:00;;;;;;;5.62;2.58;;;24.80;58.40;;;;;;2331424;53;20989;-71
2021/09/09 09:20:39;;;;;;;4.55;2.75;;;24.90;58.60;;;;;;2348156;53;22177;-72
2021/09/09 09:23:21;;;;;;;3.85;2.45;;;25.00;58.70;;;;;;2399546;52;21403;-74
2021/09/09 09:25:48;;;;;;;;;;;25.00;58.70;;;;;;2351204;53;20973;-74
2021/09/09 09:28:16;;;;;;;5.35;2.60;;;25.10;58.70;;;;;;2347584;53;20200;-72
2021/09/09 09:31:01;;;;;;;5.53;3.37;;;25.10;58.40;;;;;;2347693;53;20989;-73
2021/09/09 09:33:36;;;;;;;7.40;3.60;;;25.20;58.80;;;;;;2351753;52;20983;-74
2021/09/09 09:36:18;;;;;;;6.43;3.45;;;25.20;58.70;;;;;;2348008;53;21107;-74
2021/09/09 09:38:45;;;;;;;5.70;3.20;;;25.20;58.60;;;;;;2347120;53;21069;-71
2021/09/09 09:41:12;;;;;;;4.95;3.22;;;25.30;58.50;;;;;;2495459;52;20981;-72
2021/09/09 09:43:47;;;;;;;5.15;2.47;;;25.30;58.50;;;;;;2333022;53;21046;-71
2021/09/09 09:46:32;;;;;;;4.35;2.62;;;25.30;58.50;;;;;;2349304;53;21125;-74
2021/09/09 09:49:29;;;;;;;4.90;2.50;;;25.40;58.70;;;;;;2492991;52;20991;-72
2021/09/09 09:51:57;;;;;;;5.05;3.20;;;25.40;58.70;;;;;;2597073;52;20930;-72
2021/09/09 09:54:24;;;;;;;4.62;2.58;;;25.40;58.50;;;;;;2354990;52;21300;-73
2021/09/09 09:56:50;;;;;;;5.18;2.70;;;25.50;58.40;;;;;;2340149;53;21848;-73
2021/09/09 09:59:17;;;;;;;4.43;2.83;;;25.50;58.40;;;;;;2353989;52;20984;-75
2021/09/09 10:01:43;;;;;;;5.00;2.55;;;25.50;58.30;;;;;;2351604;52;21049;-72
2021/09/09 10:04:11;;;;;;;4.55;2.30;;;25.50;58.40;;;;;;2352671;52;20990;-73
2021/09/09 10:06:38;;;;;;;4.97;2.33;;;25.50;58.40;;;;;;2340742;53;21021;-70
2021/09/09 10:09:12;;;;;;;4.10;2.33;;;25.60;58.40;;;;;;2351504;52;21495;-69
2021/09/09 10:11:39;;;;;;;5.12;2.50;;;25.60;58.20;;;;;;2347462;53;21096;-72
2021/09/09 10:14:05;;;;;;;4.45;2.53;;;25.60;58.10;;;;;;2410939;52;21044;-71
2021/09/09 10:16:38;;;;;;;4.15;2.67;;;25.60;58.00;;;;;;2520520;52;20958;-72
2021/09/09 10:19:04;;;;;;;4.12;2.60;;;25.60;57.80;;;;;;2351998;52;20953;-70
2021/09/09 10:21:40;;;;;;;4.03;2.50;;;25.60;57.60;;;;;;2368834;52;20969;-68
2021/09/09 10:24:16;;;;;;;4.40;2.50;;;25.60;57.30;;;;;;2352039;52;20974;-71
2021/09/09 10:26:42;;;;;;;4.03;2.62;;;25.60;57.30;;;;;;2347249;53;20933;-75
2021/09/09 10:29:43;;;;;;;3.60;2.35;;;25.60;57.30;;;;;;2355656;53;21066;-74
2021/09/09 10:32:46;;;;;;;4.43;2.60;;;25.70;57.40;;;;;;2334974;53;21044;-73
2021/09/09 10:35:33;;;;;;;5.07;2.20;;;25.60;57.40;;;;;;2462165;52;22255;-72
2021/09/09 10:38:28;;;;;;;3.60;2.33;;;25.70;57.50;;;;;;2341288;52;21002;-73
2021/09/09 10:40:54;;;;;;;4.53;1.90;;;25.70;57.50;;;;;;2333188;53;20957;-75
2021/09/09 10:44:04;;;;;;;3.17;2.00;;;25.70;57.60;;;;;;2352469;52;20979;-72
2021/09/09 10:46:36;;;;;;;2.95;1.52;;;25.70;57.80;;;;;;2347666;53;20965;-70
2021/09/09 10:49:19;;;;;;;3.75;2.10;;;25.70;58.50;;;;;;2379589;52;21437;-72
2021/09/09 10:52:10;;;;;;;4.97;2.60;;;25.70;58.10;;;;;;2349689;52;20970;-72
2021/09/09 10:55:07;;;;;;;4.63;2.83;;;25.70;58.10;;;;;;2352685;53;21257;-75
2021/09/09 10:57:34;;;;;;;4.03;2.47;;;25.70;57.90;;;;;;2347332;53;21482;-74
2021/09/09 11:00:03;;;;;;;4.00;2.40;;;25.70;57.90;;;;;;2411068;52;20930;-72
2021/09/09 11:02:29;;;;;;;4.85;2.80;;;25.80;57.80;;;;;;2347690;53;22062;-71
2021/09/09 11:05:01;;;;;;;4.60;2.85;;;25.80;57.50;;;;;;2347889;53;21384;-72
2021/09/09 11:07:30;;;;;;;7.32;2.28;;;25.80;57.30;;;;;;2347796;53;21000;-74
2021/09/09 11:10:09;;;;;;;3.90;2.60;;;25.90;57.30;;;;;;2352380;52;20921;-74
2021/09/09 11:12:38;;;;;;;4.00;2.72;;;25.90;57.00;;;;;;2348281;53;21902;-76
2021/09/09 11:15:06;;;;;;;4.53;2.65;;;26.00;57.10;;;;;;2596995;52;20930;-76
2021/09/09 11:17:33;;;;;;;5.12;2.55;;;26.00;56.80;;;;;;2433778;52;21002;-72
2021/09/09 11:20:04;;;;;;;4.53;2.72;;;26.00;56.80;;;;;;2349969;53;20984;-70
2021/09/09 11:22:30;;;;;;;4.25;2.80;;;26.10;56.80;;;;;;2346748;53;20933;-72
2021/09/09 11:24:58;;;;;;;4.25;2.42;;;26.10;56.60;;;;;;2541354;52;1353399;-73
2021/09/09 11:27:29;;;;;;;4.00;2.70;;;26.20;56.70;;;;;;2328268;53;22067;-74
2021/09/09 11:29:57;;;;;;;4.20;2.50;;;26.20;56.30;;;;;;2522655;52;21053;-74
2021/09/09 11:32:24;;;;;;;4.25;2.83;;;26.30;56.20;;;;;;2551655;52;20945;-71
2021/09/09 11:34:51;;;;;;;3.97;2.83;;;26.30;56.10;;;;;;2351601;53;20926;-74
2021/09/09 11:37:17;;;;;;;6.35;3.37;;;26.30;56.10;;;;;;2336389;53;21013;-69
2021/09/09 11:39:43;;;;;;;4.68;2.65;;;26.30;55.90;;;;;;2345618;53;20969;-71
2021/09/09 11:42:15;;;;;;;5.17;2.83;;;26.40;55.60;;;;;;2420947;52;21336;-75
2021/09/09 11:44:42;;;;;;;4.03;2.53;;;26.40;55.50;;;;;;2347599;53;21992;-74
2021/09/09 11:47:12;;;;;;;5.15;2.70;;;26.50;55.30;;;;;;2598124;52;20998;-72
2021/09/09 11:49:39;;;;;;;5.20;3.00;;;26.60;55.30;;;;;;2347628;53;20982;-73
2021/09/09 11:52:05;;;;;;;4.55;3.22;;;26.60;55.30;;;;;;2347441;53;21092;-74
2021/09/09 11:54:34;;;;;;;5.22;2.85;;;26.60;55.20;;;;;;2347276;53;21105;-73
2021/09/09 11:57:18;;;;;;;3.87;2.55;;;26.70;55.10;;;;;;2347943;52;20953;-73
2021/09/09 11:59:51;;;;;;;4.55;2.85;;;26.70;54.80;;;;;;2348304;53;20981;-74
2021/09/09 12:02:19;;;;;;;4.72;2.67;;;26.80;54.60;;;;;;2348689;52;20950;-73
2021/09/09 12:04:46;;;;;;;4.10;2.55;;;26.80;54.50;;;;;;2357771;52;20970;-72
2021/09/09 12:07:21;;;;;;;5.05;3.00;;;26.80;54.60;;;;;;2337716;53;20977;-72
2021/09/09 12:10:05;;;;;;;4.40;3.08;;;27.00;54.50;;;;;;2347637;52;22222;-74
2021/09/09 12:12:33;;;;;;;4.37;2.83;;;27.10;54.50;;;;;;2327403;53;21052;-74
2021/09/09 12:15:10;;;;;;;4.37;2.60;;;27.10;54.70;;;;;;2347342;52;20957;-74
2021/09/09 12:17:39;;;;;;;5.82;2.90;;;27.20;54.60;;;;;;2494508;52;20962;-73
2021/09/09 12:20:12;;;;;;;4.25;2.78;;;27.30;54.30;;;;;;2350977;53;21393;-74
2021/09/09 12:23:16;;;;;;;4.97;2.85;;;27.40;54.00;;;;;;2597253;52;21004;-72
2021/09/09 12:25:42;;;;;;;4.45;2.50;;;27.60;53.20;;;;;;2347097;53;20933;-73
2021/09/09 12:28:15;;;;;;;4.55;2.80;;;27.60;53.40;;;;;;2347463;53;21415;-73
2021/09/09 12:30:55;;;;;;;7.55;3.20;;;27.60;53.00;;;;;;2355744;52;21011;-73
2021/09/09 12:33:25;;;;;;;3.85;2.62;;;27.60;52.40;;;;;;2346937;52;20945;-72
2021/09/09 12:36:14;;;;;;;5.25;2.87;;;27.70;52.50;;;;;;2352424;52;21444;-76
2021/09/09 12:38:58;;;;;;;4.65;2.80;;;27.80;51.70;;;;;;2347486;53;20990;-72
2021/09/09 12:41:27;;;;;;;3.62;2.50;;;27.80;51.60;;;;;;2352177;53;20965;-72
2021/09/09 12:44:35;;;;;;;3.78;2.53;;;27.80;52.10;;;;;;2347257;53;21507;-74
2021/09/09 12:47:13;;;;;;;5.20;3.00;;;27.80;51.50;;;;;;2347748;53;20933;-73
2021/09/09 12:49:40;;;;;;;4.87;2.55;;;27.80;51.00;;;;;;2350422;53;21073;-72
2021/09/09 12:52:09;;;;;;;3.95;2.60;;;27.80;51.30;;;;;;2350378;53;21521;-70
2021/09/09 12:54:38;;;;;;;4.40;2.60;;;27.80;51.40;;;;;;2361836;52;20985;-71
2021/09/09 12:57:05;;;;;;;4.25;2.37;;;27.80;51.40;;;;;;2347049;53;21944;-72